Time;durP1;ratioP1;P1;durP2;ratioP2;P2;SDS_P1;SDS_P2;PMS_P1;PMS_P2;Temp;Humidity;BMP_temperature;BMP_pressure;BME280_temperature;BME280_humidity;BME280_pressure;Samples;Min_cycle;Max_cycle;Signal;HPM_P1;HPM_P2
2023/06/02 00:01:01;;;;;;;7.13;4.85;;;;;;;17.62;49.00;98150.81;5039201;28;20500;-67
2023/06/02 00:03:37;;;;;;;7.43;4.78;;;;;;;17.58;48.70;98158.22;5044889;28;20088;-67
2023/06/02 00:06:05;;;;;;;7.15;4.82;;;;;;;17.55;49.23;98157.75;5034005;28;20021;-67
2023/06/02 00:08:32;;;;;;;9.45;5.10;;;;;;;17.49;49.05;98167.47;5033851;28;20018;-67
2023/06/02 00:10:58;;;;;;;8.45;5.43;;;;;;;17.43;49.31;98163.31;5045314;28;20028;-67
2023/06/02 00:13:23;;;;;;;8.73;5.22;;;;;;;17.36;48.96;98163.91;5045049;28;20029;-67
2023/06/02 00:15:49;;;;;;;8.55;5.68;;;;;;;17.33;49.00;98166.56;5033732;28;20033;-66
2023/06/02 00:18:15;;;;;;;10.98;6.30;;;;;;;17.30;49.38;98172.81;5033818;28;20044;-68
2023/06/02 00:20:41;;;;;;;11.02;5.97;;;;;;;17.24;49.34;98166.69;5043043;28;20033;-67
2023/06/02 00:23:10;;;;;;;10.00;6.13;;;;;;;17.18;49.61;98168.06;5037843;28;20156;-67
2023/06/02 00:25:36;;;;;;;13.25;6.43;;;;;;;17.13;49.52;98173.84;5039429;28;20033;-67
2023/06/02 00:28:03;;;;;;;8.90;5.72;;;;;;;17.08;49.57;98175.72;5042512;28;20108;-67
2023/06/02 00:30:28;;;;;;;11.00;5.97;;;;;;;17.04;49.48;98171.19;5033524;28;20025;-67
2023/06/02 00:32:54;;;;;;;9.93;5.80;;;;;;;16.99;49.92;98169.47;5035306;28;20029;-67
2023/06/02 00:35:20;;;;;;;9.63;5.88;;;;;;;16.95;49.81;98169.31;5047564;28;20036;-68
2023/06/02 00:37:46;;;;;;;9.82;5.97;;;;;;;16.90;49.90;98174.28;5053449;28;20091;-67
2023/06/02 00:40:12;;;;;;;9.60;6.28;;;;;;;16.85;50.09;98166.19;5053062;28;20040;-67
2023/06/02 00:42:37;;;;;;;10.55;6.40;;;;;;;16.82;49.74;98162.97;5041665;28;20036;-67
2023/06/02 00:45:03;;;;;;;10.07;6.05;;;;;;;16.77;50.50;98165.97;5053580;28;20021;-67
2023/06/02 00:47:29;;;;;;;9.63;5.75;;;;;;;16.73;49.96;98167.00;5053351;28;20024;-68
2023/06/02 00:49:54;;;;;;;12.60;6.05;;;;;;;16.69;50.21;98166.06;5053396;28;20104;-67
2023/06/02 00:52:20;;;;;;;9.68;6.30;;;;;;;16.63;50.13;98159.97;5051868;28;20029;-68
2023/06/02 00:54:45;;;;;;;10.13;6.22;;;;;;;16.60;50.39;98158.69;5053211;28;20024;-67
2023/06/02 00:57:10;;;;;;;8.55;5.72;;;;;;;16.56;50.46;98154.97;5053071;28;20025;-68
2023/06/02 00:59:37;;;;;;;10.00;6.18;;;;;;;16.51;50.71;98157.97;5051971;28;20078;-67
2023/06/02 01:02:02;;;;;;;9.60;6.00;;;;;;;16.46;50.74;98152.66;5053005;28;20485;-67
2023/06/02 01:04:32;;;;;;;10.48;5.95;;;;;;;16.39;50.60;98149.66;5053108;28;20029;-68
2023/06/02 01:07:00;;;;;;;;;;;;;;;16.33;50.58;98160.94;5053381;28;20044;-67
2023/06/02 01:09:27;;;;;;;9.60;6.18;;;;;;;16.27;50.89;98162.31;5053024;28;20003;-67
2023/06/02 01:11:52;;;;;;;11.30;6.05;;;;;;;16.18;51.04;98162.41;5052980;28;20535;-68
2023/06/02 01:14:18;;;;;;;9.23;5.70;;;;;;;16.11;51.35;98153.00;5052883;28;20028;-68
2023/06/02 01:16:44;;;;;;;13.88;6.43;;;;;;;16.05;51.08;98149.66;5053084;28;20025;-67
2023/06/02 01:19:13;;;;;;;12.65;6.50;;;;;;;16.00;51.64;98160.94;5053706;28;20055;-68
2023/06/02 01:21:39;;;;;;;8.73;6.30;;;;;;;15.94;51.48;98160.34;5057000;28;20488;-67
2023/06/02 01:24:06;;;;;;;11.35;5.68;;;;;;;15.90;51.41;98159.41;5056933;28;20466;-67
2023/06/02 01:26:34;;;;;;;9.85;6.05;;;;;;;15.84;51.49;98160.72;5056944;28;20031;-67
2023/06/02 01:29:01;;;;;;;9.00;6.00;;;;;;;15.77;51.66;98162.06;5056968;28;20032;-67
2023/06/02 01:31:30;;;;;;;9.32;6.03;;;;;;;15.74;51.61;98159.19;5056691;28;20025;-68
2023/06/02 01:33:59;;;;;;;;;;;;;;;15.71;51.98;98162.63;5057356;28;20049;-68
2023/06/02 01:36:28;;;;;;;9.30;6.15;;;;;;;15.67;51.76;98175.50;5055684;28;19912;-67
2023/06/02 01:38:57;;;;;;;10.40;6.15;;;;;;;15.60;51.70;98167.75;5056653;28;20075;-67
2023/06/02 01:41:25;;;;;;;9.70;6.50;;;;;;;15.59;51.99;98174.44;5056434;28;20080;-67
2023/06/02 01:43:53;;;;;;;9.55;5.93;;;;;;;15.55;52.22;98170.72;5056725;28;20044;-67
2023/06/02 01:46:19;;;;;;;11.38;5.80;;;;;;;15.52;51.98;98182.44;5056563;28;20052;-67
2023/06/02 01:48:44;;;;;;;9.20;5.53;;;;;;;15.49;52.60;98178.38;5056466;28;20470;-67
2023/06/02 01:51:09;;;;;;;9.20;6.28;;;;;;;15.48;52.33;98187.84;5056520;28;20028;-67
2023/06/02 01:53:35;;;;;;;9.50;6.72;;;;;;;15.44;52.53;98182.16;5056538;28;20062;-67
2023/06/02 01:56:00;;;;;;;10.05;6.20;;;;;;;15.41;52.46;98179.28;5056272;28;20481;-67
2023/06/02 01:58:26;;;;;;;10.45;6.13;;;;;;;15.37;52.74;98179.13;5056252;28;20040;-67
2023/06/02 02:00:54;;;;;;;10.55;6.10;;;;;;;15.35;52.87;98173.13;5056279;28;20025;-67
2023/06/02 02:03:19;;;;;;;8.95;5.70;;;;;;;15.33;52.91;98183.69;5056107;28;20029;-67
2023/06/02 02:05:44;;;;;;;9.05;5.68;;;;;;;15.31;52.98;98186.81;5056246;28;20449;-68
2023/06/02 02:08:13;;;;;;;10.77;5.90;;;;;;;15.30;52.88;98184.34;5056187;28;20021;-67
2023/06/02 02:10:39;;;;;;;10.00;5.82;;;;;;;15.27;52.80;98182.28;5056127;28;20033;-68
2023/06/02 02:13:04;;;;;;;9.05;5.85;;;;;;;15.26;53.02;98188.97;5056065;28;20086;-68
2023/06/02 02:15:30;;;;;;;10.02;6.05;;;;;;;15.19;53.18;98186.72;5056041;28;20032;-67
2023/06/02 02:17:56;;;;;;;8.73;5.97;;;;;;;15.15;53.29;98183.81;5055940;28;20112;-67
2023/06/02 02:20:23;;;;;;;11.45;7.00;;;;;;;15.11;53.27;98185.63;5056199;28;20027;-69
2023/06/02 02:22:49;;;;;;;9.88;6.93;;;;;;;15.07;53.03;98184.66;5056030;28;20036;-68
2023/06/02 02:25:15;;;;;;;10.48;6.35;;;;;;;15.04;53.83;98188.09;5055838;28;20025;-68
2023/06/02 02:27:40;;;;;;;10.18;6.57;;;;;;;15.00;53.43;98182.44;5055790;28;20523;-68
2023/06/02 02:30:07;;;;;;;10.57;5.90;;;;;;;14.96;53.27;98184.22;5055230;28;20098;-68
2023/06/02 02:32:36;;;;;;;7.63;5.95;;;;;;;14.94;53.39;98181.00;5054855;28;20025;-68
2023/06/02 02:35:03;;;;;;;9.15;6.03;;;;;;;14.90;53.49;98177.28;5055619;28;20063;-68
2023/06/02 02:37:28;;;;;;;7.68;5.57;;;;;;;14.85;54.15;98175.53;5055601;28;20424;-68
2023/06/02 02:39:54;;;;;;;10.98;6.00;;;;;;;14.79;53.86;98173.25;5055529;28;20045;-68
2023/06/02 02:42:19;;;;;;;10.10;5.95;;;;;;;14.74;53.74;98182.53;5054420;28;20044;-68
2023/06/02 02:44:45;;;;;;;10.90;5.97;;;;;;;14.67;53.74;98188.53;5055447;28;20021;-68
2023/06/02 02:47:10;;;;;;;12.43;6.50;;;;;;;14.61;53.90;98183.53;5055535;28;20025;-68
2023/06/02 02:49:36;;;;;;;15.65;6.53;;;;;;;14.55;54.06;98182.91;5055635;28;20033;-68
2023/06/02 02:52:02;;;;;;;11.63;6.32;;;;;;;14.51;54.27;98188.25;5055353;28;20036;-67
2023/06/02 02:54:27;;;;;;;12.05;6.45;;;;;;;14.47;54.01;98190.06;5055349;28;20488;-68
2023/06/02 02:56:52;;;;;;;10.15;6.35;;;;;;;14.42;54.25;98193.81;5055079;28;20112;-68
2023/06/02 02:59:18;;;;;;;11.77;6.50;;;;;;;14.41;54.59;98202.44;5055258;28;20025;-68
2023/06/02 03:01:46;;;;;;;11.82;6.00;;;;;;;14.36;54.37;98206.16;5055259;28;20084;-67
2023/06/02 03:04:18;;;;;;;8.90;5.80;;;;;;;14.31;54.61;98203.56;5051730;28;20021;-68
2023/06/02 03:06:45;;;;;;;10.45;6.13;;;;;;;14.27;54.44;98208.94;5054750;28;20025;-68
2023/06/02 03:09:11;;;;;;;11.65;6.32;;;;;;;14.26;54.73;98207.31;5054971;28;20035;-67
2023/06/02 03:11:36;;;;;;;11.50;5.82;;;;;;;14.25;54.59;98213.16;5054590;28;20025;-68
2023/06/02 03:14:02;;;;;;;8.20;5.85;;;;;;;14.22;55.02;98217.38;5054854;28;20037;-68
2023/06/02 03:16:28;;;;;;;8.40;5.35;;;;;;;14.20;55.02;98219.66;5054724;28;20090;-68
2023/06/02 03:18:56;;;;;;;10.07;5.90;;;;;;;14.18;55.26;98216.41;5054779;28;20039;-68
2023/06/02 03:21:22;;;;;;;9.00;6.22;;;;;;;14.16;55.29;98235.22;5054736;28;20021;-68
2023/06/02 03:23:49;;;;;;;9.90;6.30;;;;;;;14.13;55.69;98233.94;5054817;28;20362;-68
2023/06/02 03:26:15;;;;;;;10.95;5.97;;;;;;;14.13;55.58;98241.38;5054634;28;20032;-68
2023/06/02 03:28:42;;;;;;;10.95;5.70;;;;;;;14.10;55.56;98244.78;5054667;28;20031;-68
2023/06/02 03:31:08;;;;;;;12.20;6.35;;;;;;;14.09;56.07;98251.44;5054632;28;20448;-68
2023/06/02 03:33:33;;;;;;;10.15;5.95;;;;;;;14.04;55.79;98249.66;5054450;28;20104;-68
2023/06/02 03:36:00;;;;;;;10.30;6.07;;;;;;;14.01;55.96;98255.03;5054468;28;20017;-68
2023/06/02 03:38:25;;;;;;;9.10;6.20;;;;;;;13.98;56.16;98253.72;5054404;28;20029;-67
2023/06/02 03:40:51;;;;;;;8.90;5.78;;;;;;;13.98;56.22;98260.06;5054212;28;20401;-68
2023/06/02 03:43:16;;;;;;;11.50;6.13;;;;;;;13.97;56.40;98261.19;5054042;28;20024;-69
2023/06/02 03:45:41;;;;;;;13.88;6.18;;;;;;;13.96;56.73;98262.31;5054382;28;20025;-67
2023/06/02 03:48:07;;;;;;;9.43;5.55;;;;;;;13.98;56.52;98264.75;5054364;28;20382;-67
2023/06/02 03:50:32;;;;;;;9.35;5.82;;;;;;;14.00;57.05;98265.22;5054236;28;20082;-68
2023/06/02 03:52:57;;;;;;;13.27;6.45;;;;;;;13.99;56.81;98267.19;5054134;28;20033;-68
2023/06/02 03:55:24;;;;;;;9.13;5.60;;;;;;;14.00;56.89;98268.00;5053994;28;20036;-68
2023/06/02 03:57:49;;;;;;;8.95;6.10;;;;;;;14.03;56.81;98272.06;5053934;28;20039;-68
2023/06/02 04:00:15;;;;;;;10.15;5.55;;;;;;;14.04;57.00;98271.72;5054038;28;20112;-68
2023/06/02 04:02:41;;;;;;;11.32;5.95;;;;;;;14.06;57.10;98274.19;5054030;28;20389;-68
2023/06/02 04:05:06;;;;;;;10.50;6.38;;;;;;;14.08;57.41;98277.38;5054004;28;20060;-68
2023/06/02 04:07:32;;;;;;;11.40;6.10;;;;;;;14.09;57.47;98281.78;5053930;28;20072;-68
2023/06/02 04:09:57;;;;;;;8.60;5.63;;;;;;;14.10;57.36;98283.41;5053816;28;20036;-68
2023/06/02 04:12:22;;;;;;;9.40;5.72;;;;;;;14.11;57.42;98279.50;5053650;28;20063;-68
2023/06/02 04:14:48;;;;;;;8.40;5.03;;;;;;;14.12;57.71;98281.94;5053678;28;20477;-68
2023/06/02 04:17:13;;;;;;;8.10;5.68;;;;;;;14.18;57.63;98292.81;5053634;28;20060;-68
2023/06/02 04:19:39;;;;;;;9.15;5.40;;;;;;;14.17;57.60;98286.47;5053938;28;20428;-67
2023/06/02 04:22:05;;;;;;;12.95;6.03;;;;;;;14.21;57.48;98292.19;5053720;28;20431;-68
2023/06/02 04:24:30;;;;;;;8.73;5.70;;;;;;;14.23;57.69;98290.72;5053553;28;20017;-68
2023/06/02 04:26:56;;;;;;;8.95;5.53;;;;;;;14.24;57.74;98288.78;5053709;28;20029;-68
2023/06/02 04:29:22;;;;;;;10.48;5.32;;;;;;;14.23;57.61;98282.44;5053410;28;20017;-68
2023/06/02 04:31:48;;;;;;;10.07;5.45;;;;;;;14.27;57.62;98286.16;5053792;28;20024;-68
2023/06/02 04:34:14;;;;;;;9.93;5.53;;;;;;;14.33;57.26;98288.75;5053369;28;20550;-68
2023/06/02 04:36:40;;;;;;;10.30;6.28;;;;;;;14.37;57.79;98282.25;5053293;28;20480;-67
2023/06/02 04:39:07;;;;;;;10.60;6.47;;;;;;;14.39;57.89;98281.94;5053250;28;20031;-68
2023/06/02 04:41:33;;;;;;;10.40;5.78;;;;;;;14.40;57.75;98286.34;5053130;28;20489;-68
2023/06/02 04:44:00;;;;;;;8.65;6.40;;;;;;;14.43;57.64;98289.22;5053385;28;20028;-68
2023/06/02 04:46:28;;;;;;;10.73;6.57;;;;;;;14.43;57.80;98293.97;5053184;28;20053;-68
2023/06/02 04:48:54;;;;;;;11.38;6.35;;;;;;;14.39;57.81;98290.22;5053223;28;20040;-68
2023/06/02 04:51:29;;;;;;;10.80;6.03;;;;;;;14.37;57.89;98293.28;5053104;28;20377;-68
2023/06/02 04:53:55;;;;;;;9.00;5.78;;;;;;;14.39;58.34;98287.47;5052458;28;20104;-68
2023/06/02 04:56:23;;;;;;;10.80;6.05;;;;;;;14.38;57.97;98285.84;5052196;28;20108;-67
2023/06/02 04:58:48;;;;;;;10.75;5.70;;;;;;;14.38;57.87;98283.88;5051735;28;20025;-68
2023/06/02 05:01:14;;;;;;;12.93;6.10;;;;;;;14.40;58.20;98289.09;5053082;28;20021;-67
2023/06/02 05:03:40;;;;;;;17.42;10.85;;;;;;;14.42;58.30;98297.84;5053061;28;20429;-68
2023/06/02 05:06:05;;;;;;;13.05;6.80;;;;;;;14.44;58.20;98299.13;5052793;28;20029;-68
2023/06/02 05:08:31;;;;;;;14.10;5.90;;;;;;;14.48;58.01;98301.25;5052389;28;20032;-70
2023/06/02 05:10:56;;;;;;;8.18;4.93;;;;;;;14.50;58.26;98297.00;5052809;28;20397;-68
2023/06/02 05:13:23;;;;;;;8.75;5.22;;;;;;;14.54;58.45;98306.25;5052448;28;20119;-68
2023/06/02 05:15:48;;;;;;;8.82;5.10;;;;;;;14.56;58.50;98303.19;5053171;28;20436;-68
2023/06/02 05:18:14;;;;;;;13.80;5.72;;;;;;;14.57;58.09;98300.09;5052222;28;20120;-68
2023/06/02 05:20:41;;;;;;;9.30;5.20;;;;;;;14.60;58.00;98301.41;5052730;28;20021;-68
2023/06/02 05:23:06;;;;;;;10.60;5.25;;;;;;;14.64;58.28;98304.31;5052694;28;20017;-69
2023/06/02 05:25:32;;;;;;;9.48;5.40;;;;;;;14.63;57.88;98306.28;5052824;28;20430;-68
2023/06/02 05:27:57;;;;;;;8.90;5.30;;;;;;;14.63;58.10;98306.28;5051184;28;20029;-68
2023/06/02 05:30:23;;;;;;;11.98;5.57;;;;;;;14.65;57.88;98312.28;5047089;28;20024;-69
2023/06/02 05:32:48;;;;;;;11.73;5.57;;;;;;;14.68;57.87;98308.84;5049723;28;20197;-68
2023/06/02 05:35:13;;;;;;;10.20;5.50;;;;;;;14.72;57.86;98311.81;5051233;28;20028;-68
2023/06/02 05:37:39;;;;;;;8.90;5.22;;;;;;;14.77;58.19;98308.88;5056903;28;20037;-68
2023/06/02 05:40:05;;;;;;;9.38;5.40;;;;;;;14.81;58.21;98309.84;5050588;28;20558;-68
2023/06/02 05:42:30;;;;;;;9.60;5.65;;;;;;;14.86;57.74;98306.91;5048503;28;20501;-68
2023/06/02 05:44:56;;;;;;;13.27;6.00;;;;;;;14.95;57.99;98311.56;5046319;28;20021;-68
2023/06/02 05:47:21;;;;;;;14.18;5.88;;;;;;;15.00;58.36;98311.41;5051025;28;20021;-68
2023/06/02 05:49:47;;;;;;;10.95;5.40;;;;;;;15.08;58.04;98323.59;5046270;28;20071;-68
2023/06/02 05:52:12;;;;;;;8.73;5.07;;;;;;;15.14;58.30;98319.47;5032341;28;20068;-68
2023/06/02 05:54:39;;;;;;;9.25;4.93;;;;;;;15.20;58.01;98331.97;5032610;28;20045;-69
2023/06/02 05:57:05;;;;;;;9.27;5.32;;;;;;;15.23;58.11;98331.31;5032583;28;20076;-68
2023/06/02 05:59:30;;;;;;;9.88;4.93;;;;;;;15.27;58.23;98337.81;5042625;28;20033;-69
2023/06/02 06:01:55;;;;;;;9.48;5.10;;;;;;;15.29;57.73;98338.28;5039037;28;20039;-70
2023/06/02 06:04:21;;;;;;;8.45;4.95;;;;;;;15.33;57.80;98341.19;5050287;28;20037;-70
2023/06/02 06:06:46;;;;;;;9.23;4.97;;;;;;;15.36;57.96;98342.50;5055023;28;20432;-69
2023/06/02 06:09:12;;;;;;;8.23;4.72;;;;;;;15.41;57.65;98337.59;5055136;28;20029;-69
2023/06/02 06:11:37;;;;;;;12.88;5.35;;;;;;;15.47;57.54;98338.22;5050144;28;20029;-67
2023/06/02 06:14:07;;;;;;;8.50;4.72;;;;;;;15.52;57.45;98337.22;5055011;28;20024;-67
2023/06/02 06:16:32;;;;;;;8.55;4.32;;;;;;;15.54;57.57;98337.69;5051363;28;20438;-67
2023/06/02 06:18:58;;;;;;;7.47;4.63;;;;;;;15.54;57.14;98343.22;5054376;28;20052;-68
2023/06/02 06:21:23;;;;;;;8.90;4.47;;;;;;;15.54;57.39;98340.47;5054570;28;20048;-68
2023/06/02 06:23:49;;;;;;;8.48;4.30;;;;;;;15.56;57.46;98340.94;5053704;28;20111;-69
2023/06/02 06:26:16;;;;;;;8.95;4.38;;;;;;;15.61;57.62;98335.22;5049863;28;20033;-68
2023/06/02 06:28:44;;;;;;;6.35;4.03;;;;;;;15.64;57.12;98334.56;5052051;28;20060;-67
2023/06/02 06:31:09;;;;;;;6.60;4.00;;;;;;;15.66;57.37;98342.50;5047401;28;20025;-68
2023/06/02 06:33:35;;;;;;;10.15;4.95;;;;;;;15.68;57.20;98346.59;5054680;28;20113;-67
2023/06/02 06:36:00;;;;;;;8.95;4.90;;;;;;;15.72;57.32;98353.03;5052591;28;20021;-68
2023/06/02 06:38:25;;;;;;;11.45;4.53;;;;;;;15.76;56.87;98351.25;5051669;28;20105;-68
2023/06/02 06:40:51;;;;;;;6.38;4.10;;;;;;;15.77;57.32;98343.75;5053537;28;20097;-68
2023/06/02 06:43:16;;;;;;;7.55;4.82;;;;;;;15.82;56.94;98360.16;5052034;28;20221;-68
2023/06/02 06:45:42;;;;;;;6.45;4.47;;;;;;;15.88;57.17;98349.75;5051621;28;20037;-68
2023/06/02 06:48:08;;;;;;;8.15;4.07;;;;;;;15.93;57.16;98358.66;5054659;28;20100;-68
2023/06/02 06:50:33;;;;;;;6.78;4.15;;;;;;;15.97;57.03;98353.28;5052325;28;20039;-67
2023/06/02 06:53:01;;;;;;;13.30;4.80;;;;;;;16.00;56.96;98362.84;5053526;28;20029;-67
2023/06/02 06:55:26;;;;;;;8.90;3.95;;;;;;;15.99;56.71;98364.00;5047582;28;20029;-67
2023/06/02 06:57:52;;;;;;;9.18;4.20;;;;;;;16.02;56.88;98369.69;5037051;28;20044;-68
2023/06/02 07:00:17;;;;;;;5.65;3.80;;;;;;;16.05;56.24;98366.25;5040461;28;20401;-68
2023/06/02 07:02:44;;;;;;;8.98;4.10;;;;;;;16.06;56.41;98370.63;5034840;28;20033;-67
2023/06/02 07:05:09;;;;;;;7.20;3.88;;;;;;;16.11;56.43;98369.63;5045004;28;20477;-66
2023/06/02 07:07:35;;;;;;;7.35;4.05;;;;;;;16.15;56.37;98365.03;5038436;28;20079;-67
2023/06/02 07:10:01;;;;;;;7.30;3.65;;;;;;;16.19;56.30;98368.75;5054317;28;20037;-67
2023/06/02 07:12:26;;;;;;;9.13;4.05;;;;;;;16.28;56.38;98373.44;5053126;28;20042;-67
2023/06/02 07:14:52;;;;;;;8.32;3.58;;;;;;;16.33;55.85;98379.56;5055772;28;20413;-68
2023/06/02 07:17:18;;;;;;;6.38;3.30;;;;;;;16.37;56.00;98380.50;5049428;28;20569;-69
2023/06/02 07:19:44;;;;;;;8.60;3.53;;;;;;;16.41;55.61;98372.34;5052407;28;20112;-68
2023/06/02 07:22:10;;;;;;;6.68;3.30;;;;;;;16.47;55.63;98372.97;5053792;28;20466;-68
2023/06/02 07:24:35;;;;;;;7.32;3.38;;;;;;;16.52;55.37;98375.50;5054045;28;20029;-68
2023/06/02 07:27:02;;;;;;;5.78;3.28;;;;;;;16.52;55.24;98370.78;5053597;28;20036;-68
2023/06/02 07:29:27;;;;;;;7.50;3.15;;;;;;;16.58;55.31;98376.91;5050732;28;20028;-68
2023/06/02 07:31:52;;;;;;;6.50;3.38;;;;;;;16.62;54.90;98371.53;5048999;28;20082;-68
2023/06/02 07:34:18;;;;;;;4.93;2.67;;;;;;;16.63;54.16;98365.66;5051790;28;20505;-68
2023/06/02 07:36:44;;;;;;;6.78;2.95;;;;;;;16.67;54.38;98368.56;5052405;28;20040;-68
2023/06/02 07:39:10;;;;;;;6.72;3.78;;;;;;;16.70;54.12;98365.13;5052380;28;20044;-67
2023/06/02 07:41:35;;;;;;;6.78;3.10;;;;;;;16.77;54.22;98361.78;5053763;28;20049;-67
2023/06/02 07:44:01;;;;;;;5.55;3.10;;;;;;;16.84;54.05;98356.50;5054096;28;20470;-67
2023/06/02 07:46:26;;;;;;;8.02;3.50;;;;;;;16.91;54.24;98361.50;5054929;28;20029;-67
2023/06/02 07:48:52;;;;;;;8.68;3.30;;;;;;;16.98;54.11;98355.41;5054165;28;20048;-67
2023/06/02 07:51:17;;;;;;;34.85;4.95;;;;;;;17.07;54.29;98358.91;5049257;28;20033;-67
2023/06/02 07:53:42;;;;;;;6.53;3.25;;;;;;;17.16;54.09;98367.94;5053104;28;20103;-67
2023/06/02 07:56:08;;;;;;;7.28;3.70;;;;;;;17.19;53.73;98358.94;5053231;28;20057;-67
2023/06/02 07:58:33;;;;;;;6.05;2.85;;;;;;;17.22;52.89;98360.22;5054110;28;20037;-67
2023/06/02 08:00:58;;;;;;;7.53;3.30;;;;;;;17.24;52.62;98360.69;5054165;28;20036;-68
2023/06/02 08:03:24;;;;;;;5.45;3.30;;;;;;;17.24;52.30;98363.44;5052895;28;20024;-67
2023/06/02 08:05:49;;;;;;;6.72;3.50;;;;;;;17.28;53.12;98358.06;5054024;28;20028;-68
2023/06/02 08:08:15;;;;;;;7.15;3.08;;;;;;;17.36;53.00;98370.97;5053996;28;20025;-67
2023/06/02 08:10:40;;;;;;;8.43;3.53;;;;;;;17.40;52.63;98360.81;5054185;28;20028;-68
2023/06/02 08:13:06;;;;;;;8.55;3.50;;;;;;;17.44;52.48;98372.84;5053865;28;20048;-67
2023/06/02 08:15:31;;;;;;;6.85;3.40;;;;;;;17.49;52.68;98361.53;5054005;28;20020;-68
2023/06/02 08:17:57;;;;;;;6.13;3.40;;;;;;;17.56;52.62;98356.22;5053806;28;20121;-67
2023/06/02 08:20:22;;;;;;;8.32;3.25;;;;;;;17.63;52.43;98366.75;5053646;28;20035;-67
2023/06/02 08:22:47;;;;;;;12.48;3.67;;;;;;;17.72;52.64;98372.19;5047848;28;20025;-66
2023/06/02 08:25:15;;;;;;;8.32;3.40;;;;;;;17.79;52.68;98372.41;5044235;28;20509;-67
2023/06/02 08:27:44;;;;;;;7.05;3.45;;;;;;;17.88;52.64;98377.84;5049043;28;20032;-67
2023/06/02 08:30:13;;;;;;;5.97;3.50;;;;;;;17.97;52.53;98372.19;5051110;28;20385;-68
2023/06/02 08:32:39;;;;;;;7.05;3.30;;;;;;;18.04;52.41;98372.44;5041706;28;20039;-68
2023/06/02 08:35:05;;;;;;;8.45;3.63;;;;;;;18.15;52.18;98375.53;5050069;28;20028;-68
2023/06/02 08:37:31;;;;;;;6.45;3.42;;;;;;;18.23;52.00;98376.56;5053010;28;20373;-67
2023/06/02 08:39:57;;;;;;;8.05;3.55;;;;;;;18.29;51.23;98386.28;5052480;28;20102;-67
2023/06/02 08:42:26;;;;;;;6.13;3.22;;;;;;;18.35;51.42;98379.31;5052553;28;20100;-69
2023/06/02 08:44:52;;;;;;;5.53;3.40;;;;;;;18.43;51.11;98385.91;5052590;28;20036;-67
2023/06/02 08:47:28;;;;;;;7.13;3.58;;;;;;;18.51;51.21;98381.38;5049793;28;20106;-67
2023/06/02 08:49:54;;;;;;;7.30;3.28;;;;;;;18.63;50.91;98395.22;5048649;28;20047;-67
2023/06/02 08:52:25;;;;;;;8.10;3.40;;;;;;;18.67;51.02;98385.03;5052115;28;20021;-68
2023/06/02 08:54:51;;;;;;;6.75;3.08;;;;;;;18.79;50.17;98383.38;5058069;28;20025;-66
2023/06/02 08:57:22;;;;;;;5.13;3.20;;;;;;;18.78;49.35;98384.53;5050206;28;20083;-67
2023/06/02 08:59:48;;;;;;;4.93;3.10;;;;;;;18.70;49.45;98375.19;5048929;28;20029;-69
2023/06/02 09:02:15;;;;;;;6.78;3.35;;;;;;;18.61;49.39;98383.66;5050201;28;20032;-67
2023/06/02 09:04:40;;;;;;;8.93;3.20;;;;;;;18.62;49.55;98384.47;5049300;28;20013;-67
2023/06/02 09:07:12;;;;;;;8.40;3.20;;;;;;;18.61;49.83;98378.09;5051869;28;20531;-67
2023/06/02 09:09:49;;;;;;;7.60;3.28;;;;;;;18.63;49.61;98386.88;5052950;28;20032;-67
2023/06/02 09:12:16;;;;;;;9.98;3.05;;;;;;;18.63;49.35;98381.31;5053308;28;20035;-67
2023/06/02 09:14:42;;;;;;;6.57;3.05;;;;;;;18.67;49.70;98390.56;5051099;28;20025;-67
2023/06/02 09:17:30;;;;;;;7.30;3.20;;;;;;;18.74;49.69;98390.78;5049114;28;20028;-67
2023/06/02 09:19:58;;;;;;;6.47;2.72;;;;;;;18.75;49.49;98386.84;5050344;28;20025;-69
2023/06/02 09:22:23;;;;;;;4.55;3.03;;;;;;;18.78;49.42;98381.75;5049437;28;20025;-67
2023/06/02 09:24:52;;;;;;;6.28;3.03;;;;;;;18.80;49.50;98394.13;5051502;28;20535;-66
2023/06/02 09:27:17;;;;;;;8.65;3.70;;;;;;;18.84;49.64;98389.47;5051860;28;20036;-67
2023/06/02 09:29:46;;;;;;;6.95;2.85;;;;;;;18.91;49.49;98388.88;5051815;28;20112;-67
2023/06/02 09:32:18;;;;;;;4.53;2.80;;;;;;;18.99;49.40;98378.81;5051810;28;20029;-67
2023/06/02 09:34:45;;;;;;;6.68;2.92;;;;;;;19.03;49.22;98388.03;5051128;28;20033;-67
2023/06/02 09:37:17;;;;;;;6.00;2.90;;;;;;;19.01;48.79;98391.16;5051716;28;20115;-67
2023/06/02 09:39:46;;;;;;;7.00;2.95;;;;;;;18.96;48.80;98393.41;5051911;28;20033;-66
2023/06/02 09:42:16;;;;;;;6.30;3.10;;;;;;;18.93;48.89;98400.47;5054991;28;20021;-67
2023/06/02 09:45:06;;;;;;;8.38;3.20;;;;;;;18.90;48.46;98403.94;5055887;28;20389;-67
2023/06/02 09:47:40;;;;;;;4.13;2.80;;;;;;;18.89;48.59;98399.53;5054888;28;20029;-68
2023/06/02 09:50:07;;;;;;;6.97;2.80;;;;;;;18.86;48.35;98394.69;5051750;28;20033;-66
2023/06/02 09:52:32;;;;;;;5.30;2.65;;;;;;;18.86;48.41;98394.69;5053125;28;20029;-66
2023/06/02 09:54:59;;;;;;;7.25;3.08;;;;;;;18.89;48.28;98394.00;5057206;28;20063;-67
2023/06/02 09:57:24;;;;;;;6.22;2.80;;;;;;;18.88;48.26;98401.50;5055241;28;20036;-67
2023/06/02 09:59:50;;;;;;;5.95;3.13;;;;;;;18.85;48.33;98393.06;5054969;28;20029;-67
2023/06/02 10:02:15;;;;;;;5.97;3.05;;;;;;;18.81;48.07;98404.06;5053648;28;20048;-66
2023/06/02 10:04:41;;;;;;;5.38;3.00;;;;;;;18.75;47.77;98397.13;5052710;28;20025;-67
2023/06/02 10:07:25;;;;;;;7.57;3.05;;;;;;;18.66;47.96;98399.28;5056077;28;20044;-68
2023/06/02 10:10:09;;;;;;;10.32;3.17;;;;;;;18.64;48.39;98398.81;5041366;28;20032;-68
2023/06/02 10:12:58;;;;;;;10.48;3.40;;;;;;;18.71;48.34;98396.25;5049521;28;20029;-66
2023/06/02 10:15:42;;;;;;;5.60;3.17;;;;;;;18.66;48.37;98393.72;5052483;28;20117;-67
2023/06/02 10:18:32;;;;;;;7.10;3.00;;;;;;;18.65;48.20;98406.00;5054518;28;20488;-67
2023/06/02 10:21:30;;;;;;;6.07;2.90;;;;;;;18.59;48.19;98411.78;5052178;28;20102;-67
2023/06/02 10:24:27;;;;;;;7.25;3.08;;;;;;;18.60;48.19;98393.97;5054749;28;20036;-67
2023/06/02 10:27:21;;;;;;;9.35;3.20;;;;;;;18.68;48.37;98402.50;5047095;28;20067;-66
2023/06/02 10:29:51;;;;;;;5.88;3.30;;;;;;;18.76;48.03;98393.19;5054795;28;20448;-67
2023/06/02 10:32:21;;;;;;;7.53;3.13;;;;;;;18.81;48.31;98395.72;5049344;28;20436;-68
2023/06/02 10:34:54;;;;;;;10.13;3.50;;;;;;;18.90;48.10;98401.16;5047097;28;20028;-68
2023/06/02 10:37:21;;;;;;;8.75;3.08;;;;;;;18.89;47.75;98399.53;5035540;28;20034;-68
2023/06/02 10:39:52;;;;;;;9.40;3.08;;;;;;;18.87;47.33;98404.66;5035921;28;20353;-67
2023/06/02 10:42:18;;;;;;;6.63;2.92;;;;;;;18.86;47.30;98411.38;5035604;28;20537;-67
2023/06/02 10:44:44;;;;;;;5.60;2.90;;;;;;;18.89;47.35;98405.91;5035761;28;20444;-67
2023/06/02 10:47:18;;;;;;;6.50;2.63;;;;;;;18.96;47.40;98404.50;5035465;28;20075;-67
2023/06/02 10:50:03;;;;;;;7.55;2.97;;;;;;;19.02;47.04;98406.69;5035219;28;20417;-68
2023/06/02 10:52:30;;;;;;;13.05;5.28;;;;;;;19.09;46.79;98408.03;5036264;28;20026;-68
2023/06/02 10:55:08;;;;;;;13.60;4.95;;;;;;;19.13;46.72;98407.00;5044653;28;20025;-68
2023/06/02 10:57:51;;;;;;;7.18;3.00;;;;;;;19.17;46.46;98407.88;5034346;28;20029;-68
2023/06/02 11:00:29;;;;;;;5.00;2.88;;;;;;;19.22;45.81;98400.44;5034092;28;20056;-68
2023/06/02 11:02:55;;;;;;;8.45;3.00;;;;;;;19.21;45.64;98405.22;5034362;28;20469;-68
2023/06/02 11:05:25;;;;;;;9.82;3.00;;;;;;;19.22;45.74;98409.59;5032698;28;20036;-68
2023/06/02 11:08:18;;;;;;;5.03;3.08;;;;;;;19.25;45.68;98410.84;5034468;28;20024;-68
2023/06/02 11:11:00;;;;;;;4.95;2.63;;;;;;;19.26;44.79;98401.34;5034534;28;20029;-68
2023/06/02 11:13:27;;;;;;;4.43;2.30;;;;;;;19.24;44.62;98406.47;5035413;28;20492;-68
2023/06/02 11:15:56;;;;;;;6.45;2.42;;;;;;;19.25;43.59;98410.84;5035196;28;20022;-68
2023/06/02 11:18:22;;;;;;;5.70;2.67;;;;;;;19.25;44.21;98405.28;5034953;28;20030;-68
2023/06/02 11:20:51;;;;;;;5.22;2.53;;;;;;;19.26;44.49;98402.19;5035292;28;20124;-68
2023/06/02 11:23:20;;;;;;;;;;;;;;;19.29;44.26;98408.97;5035424;28;20056;-66
2023/06/02 11:25:46;;;;;;;5.43;2.65;;;;;;;19.33;44.22;98412.69;5035092;28;19917;-66
2023/06/02 11:28:24;;;;;;;5.43;2.45;;;;;;;19.33;44.74;98412.69;5034899;28;20482;-66
2023/06/02 11:31:07;;;;;;;6.40;2.88;;;;;;;19.32;45.04;98409.09;5051960;28;20024;-66
2023/06/02 11:33:38;;;;;;;5.35;3.00;;;;;;;19.36;44.76;98419.50;5034778;28;20032;-66